Hlavní strana
METAR-TAF:

METAR-TAF

Letiště :

Mariehamn, Finsko

zeměpisná šířka: 60-07N, zeměpisná délka: 019-54E, výška: 6 m

Aktuální stav počasí

Zpráva byla vytvořena před 16 minutami, v 18:20 UTC
Bezvětří
Teplota 4°C
Vlhkost vzduchu 93%
Tlak 1018 hPa
Viditelnost 10 km a více
Žádná oblačnost pod 1500 m, nevyskytují se cumulonimby.

METAR: EFMA 181820Z 00000KT CAVOK 04/03 Q1018

Čas: 21:36 (18:36 UTC)

Předpověď počasí

Zpráva byla vytvořena před 1 hodinou a 10 minutami, v 17:26 UTC
Předpověď platná od 18 v 18 UTC do 19 v 03 UTC
Severní vítr kt
Viditelnost 10 km a více
Žádná oblačnost pod 1500 m, nevyskytují se cumulonimby.

TAF: EFMA 181726Z 1818/1903 00000KT CAVOK

Stav a předpovědi počasí z více než 4 000 letišť (zprávy METAR a TAF).

Červené a žluté tečky na mapě představují dostupné meteorologické stanice.

Když kurzor umístíte na tečku, zobrazí se název stanice.

Pak kliknutím zobrazíte stav a předpověď počasí.

Chcete-li změnit mapu, kliknutím na zelené tlačítko se znaménkem +mapu přiblížíte, kliknutím na zelené tlačítko se znaménkem – mapu oddálíte a kliknutím na zelené šipky přejdete na sousední mapy.


METAR-TAF: